Map

Track Data

SID SEASON NUMBER BASIN SUBBASIN NAME ISO_TIME NATURE LAT LON WMO_WIND WMO_PRES WMO_AGENCY TRACK_TYPE DIST2LAND LANDFALL IFLAG USA_AGENCY USA_ATCF_ID USA_LAT USA_LON USA_RECORD USA_STATUS USA_WIND USA_PRES USA_SSHS USA_R34_NE USA_R34_SE USA_R34_SW USA_R34_NW USA_R50_NE USA_R50_SE USA_R50_SW USA_R50_NW USA_R64_NE USA_R64_SE USA_R64_SW USA_R64_NW USA_POCI USA_ROCI USA_RMW USA_EYE TOKYO_LAT TOKYO_LON TOKYO_GRADE TOKYO_WIND TOKYO_PRES TOKYO_R50_DIR TOKYO_R50_LONG TOKYO_R50_SHORT TOKYO_R30_DIR TOKYO_R30_LONG TOKYO_R30_SHORT TOKYO_LAND CMA_LAT CMA_LON CMA_CAT CMA_WIND CMA_PRES HKO_LAT HKO_LON HKO_CAT HKO_WIND HKO_PRES NEWDELHI_LAT NEWDELHI_LON NEWDELHI_GRADE NEWDELHI_WIND NEWDELHI_PRES NEWDELHI_CI NEWDELHI_DP NEWDELHI_POCI REUNION_LAT REUNION_LON REUNION_TYPE REUNION_WIND REUNION_PRES REUNION_TNUM REUNION_CI REUNION_RMW REUNION_R34_NE REUNION_R34_SE REUNION_R34_SW REUNION_R34_NW REUNION_R50_NE REUNION_R50_SE REUNION_R50_SW REUNION_R50_NW REUNION_R64_NE REUNION_R64_SE REUNION_R64_SW REUNION_R64_NW BOM_LAT BOM_LON BOM_TYPE BOM_WIND BOM_PRES BOM_TNUM BOM_CI BOM_RMW BOM_R34_NE BOM_R34_SE BOM_R34_SW BOM_R34_NW BOM_R50_NE BOM_R50_SE BOM_R50_SW BOM_R50_NW BOM_R64_NE BOM_R64_SE BOM_R64_SW BOM_R64_NW BOM_ROCI BOM_POCI BOM_EYE BOM_POS_METHOD BOM_PRES_METHOD NADI_LAT NADI_LON NADI_CAT NADI_WIND NADI_PRES WELLINGTON_LAT WELLINGTON_LON WELLINGTON_WIND WELLINGTON_PRES DS824_LAT DS824_LON DS824_STAGE DS824_WIND DS824_PRES TD9636_LAT TD9636_LON TD9636_STAGE TD9636_WIND TD9636_PRES TD9635_LAT TD9635_LON TD9635_WIND TD9635_PRES TD9635_ROCI NEUMANN_LAT NEUMANN_LON NEUMANN_CLASS NEUMANN_WIND NEUMANN_PRES MLC_LAT MLC_LON MLC_CLASS MLC_WIND MLC_PRES USA_GUST BOM_GUST BOM_GUST_PER REUNION_GUST REUNION_GUST_PER USA_SEAHGT USA_SEARAD_NE USA_SEARAD_SE USA_SEARAD_SW USA_SEARAD_NW STORM_SPEED STORM_DIR
1971331N11114 1971 155 WP MM NOT_NAMED 1971-11-27 00:00:00 TS 11.0000 113.800 main 468 462 __O___________ -1 11.0000 113.800 1 23 1003 7 308
1971331N11114 1971 155 WP MM NOT_NAMED 1971-11-27 03:00:00 TS 11.2200 113.513 main 462 432 __P___________ -1 11.2200 113.513 1 26 1002 6 289
1971331N11114 1971 155 WP MM NOT_NAMED 1971-11-27 06:00:00 TS 11.2000 113.200 main 432 408 __O___________ -1 11.2000 113.200 1 29 1002 7 237
1971331N11114 1971 155 WP MM NOT_NAMED 1971-11-27 09:00:00 TS 10.8150 112.875 main 411 398 __P___________ -1 10.8150 112.875 1 29 1002 9 212
1971331N11114 1971 155 WP MM NOT_NAMED 1971-11-27 12:00:00 TS 10.4000 112.700 main 407 407 __O___________ -1 10.4000 112.700 1 29 1002 5 0
1971331N11114 1971 155 WP MM NOT_NAMED 1971-11-27 15:00:00 TS 10.3175 112.855 main 432 432 __P___________ -1 10.3175 112.855 1 26 1003 4 90
1971331N11114 1971 155 WP MM NOT_NAMED 1971-11-27 18:00:00 TS 10.4000 113.100 main 447 447 __O___________ -1 10.4000 113.100 1 23 1004 4 56
1971331N11114 1971 155 WP MM NOT_NAMED 1971-11-27 21:00:00 TS 10.5350 113.180 main 453 446 __P___________ -1 10.5350 113.180 1 23 1004 3 17
1971331N11114 1971 155 WP MM NOT_NAMED 1971-11-28 00:00:00 TS 10.7000 113.200 main 446 442 __O___________ -1 10.7000 113.200 1 23 1004 3 11
1971331N11114 1971 155 WP MM NOT_NAMED 1971-11-28 03:00:00 TS 10.8150 113.237 main 442 439 __P___________ -1 10.8150 113.237 1 23 1004 2 8
1971331N11114 1971 155 WP MM NOT_NAMED 1971-11-28 06:00:00 TS 10.9000 113.200 main 439 415 __O___________ -1 10.9000 113.200 1 23 1004 3 307
1971331N11114 1971 155 WP MM NOT_NAMED 1971-11-28 09:00:00 TS 10.9725 113.030 main 415 394 __P___________ -1 10.9725 113.030 1 21 1004 4 284
1971331N11114 1971 155 WP MM NOT_NAMED 1971-11-28 12:00:00 TS 11.0000 112.800 main 394 373 __O___________ -1 11.0000 112.800 0 19 1005 4 266
1971331N11114 1971 155 WP MM NOT_NAMED 1971-11-28 15:00:00 TS 10.9425 112.600 main 376 356 __P___________ -1 10.9425 112.600 0 19 1005 4 256
1971331N11114 1971 155 WP MM NOT_NAMED 1971-11-28 18:00:00 TS 10.9000 112.400 main 356 331 __O___________ -1 10.9000 112.400 0 19 1005 4 278
1971331N11114 1971 155 WP MM NOT_NAMED 1971-11-28 21:00:00 TS 11.0000 112.200 main 331 307 __P___________ -1 11.0000 112.200 0 19 1005 4 297
1971331N11114 1971 155 WP MM NOT_NAMED 1971-11-29 00:00:00 TS 11.1000 112.000 main 307 286 __O___________ -1 11.1000 112.000 0 19 1005 4 282
1971331N11114 1971 155 WP MM NOT_NAMED 1971-11-29 03:00:00 TS 11.0875 111.785 main 286 270 __P___________ -1 11.0875 111.785 0 19 1006 4 256
1971331N11114 1971 155 WP MM NOT_NAMED 1971-11-29 06:00:00 TS 11.0000 111.600 main 270 260 __O___________ -1 11.0000 111.600 0 19 1007 4 233
1971331N11114 1971 155 WP MM NOT_NAMED 1971-11-29 09:00:00 TS 10.8650 111.485 main 264 260 __P___________ -1 10.8650 111.485 0 19 1007 4 213
1971331N11114 1971 155 WP MM NOT_NAMED 1971-11-29 12:00:00 TS 10.7000 111.400 main 264 260 __O___________ -1 10.7000 111.400 0 19 1007 4 209
1971331N11114 1971 155 WP MM NOT_NAMED 1971-11-29 15:00:00 TS 10.5425 111.300 main 265 256 __P___________ -1 10.5425 111.300 0 19 1007 4 213
1971331N11114 1971 155 WP MM NOT_NAMED 1971-11-29 18:00:00 TS 10.4000 111.200 main 262 260 __O___________ -1 10.4000 111.200 0 19 1007 3 217
1971331N11114 1971 155 WP MM NOT_NAMED 1971-11-29 21:00:00 TS 10.3075 111.115 main 260 256 __P___________ -1 10.3075 111.115 0 19 1007 3 225
1971331N11114 1971 155 WP MM NOT_NAMED 1971-11-30 00:00:00 TS 10.2000 111.000 main 256 251 __O___________ -1 10.2000 111.000 0 19 1007 4 226
1971331N11114 1971 155 WP MM NOT_NAMED 1971-11-30 03:00:00 TS 10.0225 110.820 main 251 243 __P___________ -1 10.0225 110.820 0 19 1007 6 225
1971331N11114 1971 155 WP MM NOT_NAMED 1971-11-30 06:00:00 TS 9.80000 110.600 main 250 __O___________ -1 9.80000 110.600 0 19 1007 6 224

Digital Typhoon Data and Search

About IBTrACS Database

This database is a web-friendly format of International Best Track Archive for Climate Stewardship (IBTrACS), a global best track data archive curated by NOAA dating back to 1842.

Updated: 2021-12-06